Disclaimer

Please do not use the information listed here in-flight or in-navigation, as they are not provided to us by the airports but are provided by volunteers, so they might be outdated.

Search


Regions


Airport information page

Radio informations:
Tower (TWR) - 118.3 MHz

Airport informations:
Latitude: 63° 06' 42.41" N
Longitude: 007° 49' 28.28" E
Elevation: 204 feet - 62 meters
Operating hours: Remarks
Operating agency: Civil government, landing fees and diplomatic clearance may be required
Timezone: UTC+1(+2DT) - Last Sunday in March to last Sunday in October
Fuel: Jet A1, without icing nhibitor.

100/130 MIL Spec, low lead, aviation gasoline (BLUE)

Runway information:
07/25 - 6037 x 148 feet< - >1840 x 45 meters

Recent METARs:
ENKB 201450Z 07007KT 030V110 9999 FEW020 05/01 Q1031 RMK WIND 745FT 05008KT
ENKB 201520Z 10009KT 060V120 9999 FEW021 05/02 Q1031 RMK WIND 745FT 10019KT
ENKB 201550Z 09009KT 060V120 9999 FEW021 05/01 Q1031 RMK WIND 745FT 11018KT

Airport on the map: